American Falls, ID

7:57 AM MDT on September 19, 2014 (GMT -0600)
RAWS RAFT RIVER ID US | Change Station
CLOSE
Current Station
Personal Weather Station
Location: Malta, ID
Elevation: 4331 ft
Nearby Weather Stations

Elev 4331 ft 42.55 °N, 113.26 °W | Updated 38 minutes ago

Clear
Clear
53 °F
Feels Like 53 °F
N
9
Wind Variable Wind from NW
Gusts 11.0 mph

Today
High -- | Low -- °F
--% Chance of Precip.
Yesterday
High -- | Low -- °F
Precip. -- in
7:16 AM 7:34 PM
Waning Crescent, 19% visible
Pressure 30.05 in
Visibility 10.0 miles
Clouds Clear
Dew Point 46 °F
Humidity 78%
Rainfall 0.01 in
Snow Depth 0 in , 0 in , 0 in
UV 0 out of 12
Pollen 6.40 out of 12
PM2.5 Good
Flu Activity Not available.
METAR KPIH 191253Z 22010KT 10SM CLR 13/08 A3005

More Conditions Fewer Conditions

Pressure 30.05 in
Visibility 10.0 miles
Clouds Clear
Dew Point 46 °F
Humidity 78%
Rainfall 0.01 in
Snow Depth 0 in , 0 in , 0 in
UV 0 out of 12
Pollen 6.40 out of 12
PM2.5 Good
Flu Activity Not available.
METAR KPIH 191253Z 22010KT 10SM CLR 13/08 A3005

More Conditions Fewer Conditions

10-Day Weather Forecast

Almanac

Astronomy

Sep. 19, 2014 Rise Set
Actual Time 7:16 AM MDT 7:34 PM MDT
Civil Twilight 6:47 AM MDT 8:02 PM MDT
Nautical Twilight 6:14 AM MDT 8:35 PM MDT
Astronomical Twilight 5:40 AM MDT 9:09 PM MDT
Moon 3:00 AM MDT 5:09 PM MDT
Length of Visible Light 13h 14m
Length of Day
12h 18m
Tomorrow will be 2m 52s shorter.
Waning Crescent, 19% of the Moon is Illuminated
Today
Waning Crescent
Sep 24
New
Oct 1
First Quarter
Oct 8
Full
Oct 15
Last Quarter

Today's Extremes

State Highs State Lows

Community

WunderPhotos

Upload Photos

1,754,608 photos uploaded!

WunderBlogs® & News

Nearby

Air Quality

  Air Quality AQ Index Pollutant
Yesterday Good
PM2.5
Current Good
PM2.5
Friday Good
PM2.5
Saturday Good
PM2.5

Snow Depth

Station Depth Elevation
Bogus Basin 0 in 6340 ft
Hilts Creek 0 in 8000 ft
Trinity Mountain 0 in 7770 ft
Long Valley 0 in 4890 ft
Savage Pass 1 in 6170 ft

Earthquake Activity

City Distance Mag. Time & Date
No recent earthquake activity has been reported nearby.
Minimum magnitude displayed is 2.5.

Coastal Water Temperatures

Place Temperature
No Stations Reporting

Nearby Weather Stations